createdAt,value
2018-02-06T00:00:39.105Z,5.40
2018-02-06T00:01:39.146Z,5.30
2018-02-06T00:02:39.177Z,5.90
2018-02-06T00:03:39.212Z,5.60
2018-02-06T00:04:39.245Z,5.40
2018-02-06T00:05:39.286Z,5.40
2018-02-06T00:06:39.327Z,5.60
2018-02-06T00:07:39.366Z,5.70
2018-02-06T00:08:39.393Z,5.30
2018-02-06T00:09:39.434Z,5.40
2018-02-06T00:10:39.492Z,5.10
2018-02-06T00:11:39.502Z,5.10
2018-02-06T00:12:39.546Z,6.40
2018-02-06T00:13:39.577Z,6.10
2018-02-06T00:14:39.617Z,6.10
2018-02-06T00:15:39.653Z,5.30
2018-02-06T00:16:39.686Z,5.00
2018-02-06T00:17:39.725Z,5.60
2018-02-06T00:18:39.758Z,5.80
2018-02-06T00:19:39.797Z,6.70
2018-02-06T00:20:39.832Z,5.10
2018-02-06T00:21:39.874Z,5.50
2018-02-06T00:22:39.898Z,5.10
2018-02-06T00:23:39.942Z,5.10
2018-02-06T00:24:39.977Z,5.80
2018-02-06T00:25:40.016Z,5.60
2018-02-06T00:26:40.050Z,5.90
2018-02-06T00:27:40.086Z,5.40
2018-02-06T00:28:40.121Z,5.30
2018-02-06T00:29:40.155Z,5.90
2018-02-06T00:30:40.194Z,5.90
2018-02-06T00:31:40.231Z,6.50
2018-02-06T00:32:40.256Z,5.60
2018-02-06T00:33:40.304Z,5.10
2018-02-06T00:34:40.415Z,5.80
2018-02-06T00:35:40.374Z,4.80
2018-02-06T00:36:40.445Z,6.30
2018-02-06T00:37:40.450Z,7.00
2018-02-06T00:38:40.491Z,5.40
2018-02-06T00:39:40.576Z,5.70
2018-02-06T00:40:40.563Z,5.00
2018-02-06T00:41:40.598Z,6.00
2018-02-06T00:42:40.635Z,5.80
2018-02-06T00:43:40.670Z,6.10
2018-02-06T00:44:40.707Z,5.70
2018-02-06T00:45:40.740Z,6.30
2018-02-06T00:46:40.779Z,5.50
2018-02-06T00:47:40.822Z,6.40
2018-02-06T00:48:40.851Z,5.50
2018-02-06T00:49:40.914Z,5.30
2018-02-06T00:50:40.923Z,5.20
2018-02-06T00:51:40.968Z,6.30
2018-02-06T00:52:41.021Z,5.30
2018-02-06T00:53:41.028Z,5.90
2018-02-06T00:54:41.065Z,5.30
2018-02-06T00:55:41.106Z,4.90
2018-02-06T00:56:41.140Z,5.90
2018-02-06T00:57:41.177Z,5.70
2018-02-06T00:58:41.214Z,5.60
2018-02-06T00:59:41.246Z,5.40
2018-02-06T01:02:13.145Z,5.10
2018-02-06T01:03:13.142Z,5.30
2018-02-06T01:04:13.184Z,6.10
2018-02-06T01:05:13.219Z,5.30
2018-02-06T01:06:13.263Z,5.30
2018-02-06T01:07:13.287Z,5.70
2018-02-06T01:08:27.998Z,5.60
2018-02-06T01:09:13.356Z,5.70
2018-02-06T01:10:19.977Z,5.90
2018-02-06T01:11:13.426Z,5.80
2018-02-06T01:12:13.466Z,5.60
2018-02-06T01:13:13.501Z,5.50
2018-02-06T01:14:13.537Z,4.90
2018-02-06T01:15:13.574Z,5.70
2018-02-06T01:16:13.607Z,5.60
2018-02-06T01:17:13.645Z,6.20
2018-02-06T01:18:13.685Z,5.70
2018-02-06T01:19:13.720Z,7.20
2018-02-06T01:20:13.757Z,5.10
2018-02-06T01:21:13.794Z,5.80
2018-02-06T01:22:13.825Z,5.80
2018-02-06T01:23:13.872Z,5.80
2018-02-06T01:24:13.902Z,5.10
2018-02-06T01:25:13.944Z,6.10
2018-02-06T01:26:13.971Z,5.40
2018-02-06T01:27:14.008Z,5.50
2018-02-06T01:28:14.041Z,5.90
2018-02-06T01:29:14.082Z,5.70
2018-02-06T01:30:14.114Z,6.40
2018-02-06T01:31:14.155Z,5.40
2018-02-06T01:32:14.188Z,5.60
2018-02-06T01:33:14.227Z,5.20
2018-02-06T01:34:14.326Z,6.10
2018-02-06T01:35:14.299Z,6.80
2018-02-06T01:36:14.336Z,6.10
2018-02-06T01:37:14.371Z,6.20
2018-02-06T01:38:14.402Z,8.30
2018-02-06T01:39:14.443Z,5.20
2018-02-06T01:40:14.476Z,6.60
2018-02-06T01:41:14.506Z,6.40
2018-02-06T01:42:14.552Z,6.10
2018-02-06T01:43:14.581Z,6.00
2018-02-06T01:44:14.624Z,6.80
2018-02-06T01:45:14.667Z,6.00
2018-02-06T01:46:14.695Z,5.60
2018-02-06T01:47:14.743Z,5.90
2018-02-06T01:48:14.774Z,6.50
2018-02-06T01:49:14.806Z,6.50
2018-02-06T01:50:14.846Z,6.30
2018-02-06T01:51:14.879Z,5.50
2018-02-06T01:52:14.917Z,6.50
2018-02-06T01:53:14.951Z,6.10
2018-02-06T01:54:14.989Z,6.30
2018-02-06T01:55:15.019Z,5.20
2018-02-06T01:56:15.068Z,6.00
2018-02-06T01:57:15.096Z,5.80
2018-02-06T01:58:15.150Z,5.60
2018-02-06T01:59:15.170Z,6.10
2018-02-06T02:00:15.203Z,5.60
2018-02-06T02:01:15.240Z,5.20
2018-02-06T02:02:15.277Z,6.40
2018-02-06T02:03:15.302Z,6.20
2018-02-06T02:04:15.345Z,10.40
2018-02-06T02:05:15.388Z,5.60
2018-02-06T02:06:15.416Z,6.30
2018-02-06T02:07:15.464Z,5.80
2018-02-06T02:08:15.492Z,7.50
2018-02-06T02:09:15.528Z,5.70
2018-02-06T02:10:15.563Z,7.40
2018-02-06T02:11:15.603Z,6.20
2018-02-06T02:12:15.642Z,6.10
2018-02-06T02:13:15.676Z,5.20
2018-02-06T02:14:15.713Z,5.00
2018-02-06T02:15:15.748Z,6.60
2018-02-06T02:16:15.785Z,5.90
2018-02-06T02:17:15.819Z,5.70
2018-02-06T02:18:15.856Z,5.80
2018-02-06T02:19:15.889Z,6.50
2018-02-06T02:20:15.932Z,5.90
2018-02-06T02:21:15.965Z,5.90
2018-02-06T02:22:16.002Z,5.50
2018-02-06T02:23:16.035Z,5.50
2018-02-06T02:24:16.076Z,6.80
2018-02-06T02:25:16.110Z,5.90
2018-02-06T02:26:16.527Z,5.70
2018-02-06T02:27:16.179Z,6.40
2018-02-06T02:28:16.222Z,5.20
2018-02-06T02:29:16.253Z,5.50
2018-02-06T02:30:16.288Z,6.30
2018-02-06T02:31:16.317Z,5.90
2018-02-06T02:32:16.364Z,5.10
2018-02-06T02:33:16.403Z,6.30
2018-02-06T02:34:16.443Z,6.10
2018-02-06T02:35:16.468Z,5.90
2018-02-06T02:36:16.505Z,5.40
2018-02-06T02:37:16.533Z,6.60
2018-02-06T02:38:16.584Z,6.80
2018-02-06T02:39:16.620Z,6.10
2018-02-06T02:40:16.650Z,5.80
2018-02-06T02:41:16.696Z,5.90
2018-02-06T04:39:20.934Z,5.80
2018-02-06T04:40:20.965Z,7.60
2018-02-06T04:41:21.008Z,7.30
2018-02-06T04:42:21.033Z,6.30
2018-02-06T04:43:21.072Z,6.40
2018-02-06T04:44:21.107Z,6.20
2018-02-06T04:45:21.146Z,6.20
2018-02-06T04:46:21.984Z,6.50
2018-02-06T04:47:21.217Z,6.10
2018-02-06T04:48:21.285Z,5.60
2018-02-06T04:49:21.291Z,6.00
2018-02-06T04:50:21.328Z,6.20
2018-02-06T04:51:21.374Z,6.30
2018-02-06T04:52:21.398Z,5.40
2018-02-06T04:53:21.438Z,6.40
2018-02-06T04:54:21.473Z,5.90
2018-02-06T04:55:21.505Z,5.90
2018-02-06T04:56:21.541Z,6.00
2018-02-06T04:57:21.577Z,5.60
2018-02-06T04:58:21.612Z,6.60
2018-02-06T04:59:21.649Z,5.30
2018-02-06T05:00:21.688Z,5.50
2018-02-06T05:01:21.719Z,6.70
2018-02-06T05:02:21.762Z,6.60
2018-02-06T05:03:21.793Z,5.40
2018-02-06T05:04:21.836Z,5.30
2018-02-06T05:05:21.866Z,6.00
2018-02-06T05:06:21.905Z,5.70
2018-02-06T05:07:21.937Z,5.90
2018-02-06T05:08:22.007Z,5.80
2018-02-06T05:09:22.013Z,6.20
2018-02-06T05:10:22.060Z,6.30
2018-02-06T05:11:22.081Z,6.40
2018-02-06T05:12:22.117Z,6.80
2018-02-06T05:13:22.153Z,6.00
2018-02-06T05:14:22.183Z,7.10
2018-02-06T05:15:22.228Z,5.80
2018-02-06T05:16:22.266Z,5.50
2018-02-06T05:17:22.300Z,5.30
2018-02-06T05:18:22.331Z,6.90
2018-02-06T05:19:22.370Z,5.70
2018-02-06T05:20:22.401Z,6.10
2018-02-06T05:21:22.439Z,5.90
2018-02-06T05:22:22.478Z,7.20
2018-02-06T05:23:22.514Z,6.30
2018-02-06T05:24:22.551Z,9.60
2018-02-06T05:25:22.588Z,10.10
2018-02-06T05:26:22.625Z,9.10
2018-02-06T05:27:22.647Z,11.00
2018-02-06T05:28:22.697Z,13.80
2018-02-06T05:29:22.840Z,12.70
2018-02-06T05:30:22.765Z,13.20
2018-02-06T05:31:22.810Z,10.60
2018-02-06T05:32:22.839Z,13.50
2018-02-06T05:33:22.874Z,11.60
2018-02-06T05:34:22.910Z,12.80
2018-02-06T05:35:22.940Z,11.10
2018-02-06T05:36:22.982Z,15.80
2018-02-06T05:37:23.015Z,14.20
2018-02-06T05:38:23.061Z,13.70
2018-02-06T05:39:23.088Z,11.80
2018-02-06T05:40:23.130Z,12.30
2018-02-06T05:41:23.165Z,12.40
2018-02-06T05:42:23.194Z,11.80
2018-02-06T05:43:23.235Z,13.80
2018-02-06T05:44:23.340Z,11.30
